Time;durP1;ratioP1;P1;durP2;ratioP2;P2;SDS_P1;SDS_P2;PMS_P1;PMS_P2;Temp;Humidity;BMP_temperature;BMP_pressure;BME280_temperature;BME280_humidity;BME280_pressure;Samples;Min_cycle;Max_cycle;Signal;HPM_P1;HPM_P2
2023/03/11 00:00:31;;;;;;;;;;;;;;;19.04;59.35;97351.03;2090996;28;20305;-64
2023/03/11 00:01:32;;;;;;;;;;;;;;;19.03;59.50;97347.53;2087560;28;19924;-66
2023/03/11 00:02:32;;;;;;;;;;;;;;;19.06;59.07;97354.31;2088075;28;20398;-65
2023/03/11 00:03:34;;;;;;;;;;;;;;;19.04;59.31;97342.97;2088329;28;19928;-65
2023/03/11 00:04:34;;;;;;;;;;;;;;;19.03;59.17;97342.16;2092447;28;20029;-65
2023/03/11 00:05:37;;;;;;;;;;;;;;;19.02;59.36;97342.38;2087371;28;20010;-66
2023/03/11 00:06:38;;;;;;;;;;;;;;;19.03;59.02;97344.00;2093473;28;20106;-66
2023/03/11 00:07:39;;;;;;;;;;;;;;;19.01;59.44;97344.25;2093367;28;20389;-65
2023/03/11 00:08:41;;;;;;;;;;;;;;;19.00;59.19;97344.50;2089871;28;19935;-65
2023/03/11 00:09:41;;;;;;;;;;;;;;;19.01;59.23;97346.16;2092222;28;19931;-64
2023/03/11 00:10:43;;;;;;;;;;;;;;;19.01;59.15;97346.16;2090714;28;19947;-66
2023/03/11 00:11:45;;;;;;;;;;;;;;;19.01;59.15;97352.31;2087911;28;19985;-65
2023/03/11 00:12:45;;;;;;;;;;;;;;;18.99;59.17;97354.44;2087277;28;19931;-65
2023/03/11 00:13:47;;;;;;;;;;;;;;;18.98;59.34;97358.19;2092028;28;20929;-65
2023/03/11 00:14:47;;;;;;;;;;;;;;;19.00;59.26;97364.16;2090421;28;19959;-66
2023/03/11 00:15:54;;;;;;;;;;;;;;;18.98;59.12;97358.19;2088929;28;20030;-66
2023/03/11 00:16:54;;;;;;;;;;;;;;;18.98;59.21;97347.44;2090700;28;19943;-66
2023/03/11 00:17:56;;;;;;;;;;;;;;;18.97;59.14;97340.41;2091757;28;19959;-65
2023/03/11 00:18:58;;;;;;;;;;;;;;;18.98;59.26;97334.00;2094076;28;20382;-66
2023/03/11 00:19:58;;;;;;;;;;;;;;;18.96;58.99;97331.53;2087241;28;19929;-64
2023/03/11 00:21:00;;;;;;;;;;;;;;;18.97;59.07;97327.81;2090114;28;19982;-65
2023/03/11 00:22:01;;;;;;;;;;;;;;;18.96;59.25;97320.78;2091073;28;19924;-66
2023/03/11 00:23:03;;;;;;;;;;;;;;;18.97;59.06;97324.28;2089826;28;20404;-66
2023/03/11 00:24:03;;;;;;;;;;;;;;;18.95;59.28;97318.34;2086732;28;19928;-66
2023/03/11 00:25:05;;;;;;;;;;;;;;;18.94;59.02;97330.97;2092072;28;19932;-64
2023/03/11 00:26:06;;;;;;;;;;;;;;;18.94;59.20;97327.44;2093495;28;20324;-67
2023/03/11 00:27:07;;;;;;;;;;;;;;;18.92;59.08;97338.44;2086350;28;19931;-66
2023/03/11 00:28:09;;;;;;;;;;;;;;;18.92;59.05;97338.44;2086634;28;20338;-65
2023/03/11 00:29:09;;;;;;;;;;;;;;;18.91;59.06;97336.78;2093327;28;19939;-66
2023/03/11 00:30:11;;;;;;;;;;;;;;;18.92;59.06;97332.25;2090959;28;19931;-66
2023/03/11 00:31:13;;;;;;;;;;;;;;;18.90;59.23;97337.84;2090328;28;20561;-65
2023/03/11 00:32:15;;;;;;;;;;;;;;;18.92;59.14;97341.13;2087276;28;19923;-66
2023/03/11 00:33:15;;;;;;;;;;;;;;;18.89;58.89;97338.94;2094835;28;20029;-66
2023/03/11 00:34:17;;;;;;;;;;;;;;;18.89;59.07;97344.31;2091383;28;20459;-66
2023/03/11 00:35:18;;;;;;;;;;;;;;;18.88;59.38;97345.34;2091818;28;19959;-65
2023/03/11 00:36:22;;;;;;;;;;;;;;;18.88;59.13;97345.34;2089007;28;19932;-66
2023/03/11 00:37:23;;;;;;;;;;;;;;;18.88;58.95;97334.59;2094681;28;20451;-66
2023/03/11 00:38:24;;;;;;;;;;;;;;;18.87;59.09;97335.66;2088022;28;19936;-66
2023/03/11 00:39:25;;;;;;;;;;;;;;;18.86;59.03;97334.03;2092231;28;19936;-65
2023/03/11 00:40:28;;;;;;;;;;;;;;;18.86;59.02;97343.94;2092111;28;20352;-66
2023/03/11 00:41:29;;;;;;;;;;;;;;;18.86;59.30;97343.94;2087202;28;21149;-66
2023/03/11 00:42:30;;;;;;;;;;;;;;;18.86;58.98;97349.31;2090917;28;19932;-65
2023/03/11 00:43:31;;;;;;;;;;;;;;;18.86;59.10;97355.53;2087545;28;19986;-65
2023/03/11 00:44:32;;;;;;;;;;;;;;;18.84;59.27;97357.63;2093710;28;19924;-66
2023/03/11 00:45:33;;;;;;;;;;;;;;;18.84;59.27;97357.63;2092242;28;20452;-65
2023/03/11 00:46:35;;;;;;;;;;;;;;;18.82;59.10;97348.97;2090526;28;19978;-65
2023/03/11 00:47:36;;;;;;;;;;;;;;;18.83;59.16;97355.16;2088897;28;19953;-66
2023/03/11 00:48:37;;;;;;;;;;;;;;;18.82;58.95;97340.91;2087695;28;19932;-65
2023/03/11 00:49:39;;;;;;;;;;;;;;;18.83;58.97;97333.66;2089631;28;20364;-66
2023/03/11 00:50:39;;;;;;;;;;;;;;;18.81;58.92;97325.84;2096219;28;19928;-66
2023/03/11 00:51:41;;;;;;;;;;;;;;;18.81;58.97;97317.00;2089655;28;19928;-66
2023/03/11 00:52:41;;;;;;;;;;;;;;;18.81;59.31;97320.47;2088983;28;20049;-66
2023/03/11 00:53:43;;;;;;;;;;;;;;;18.79;58.99;97319.09;2088357;28;19944;-64
2023/03/11 00:54:45;;;;;;;;;;;;;;;18.77;59.04;97322.00;2088253;28;20579;-66
2023/03/11 00:55:46;;;;;;;;;;;;;;;18.78;58.86;97310.22;2086156;28;20023;-66
2023/03/11 00:56:46;;;;;;;;;;;;;;;18.78;59.18;97315.59;2087140;28;20046;-66
2023/03/11 00:57:51;;;;;;;;;;;;;;;18.78;59.06;97309.38;2095100;28;19928;-65
2023/03/11 00:58:52;;;;;;;;;;;;;;;18.74;59.22;97309.03;2092155;28;19934;-66
2023/03/11 00:59:53;;;;;;;;;;;;;;;18.75;59.11;97310.69;2091255;28;19982;-66
2023/03/11 01:00:54;;;;;;;;;;;;;;;18.74;59.02;97319.78;2093002;28;20434;-65
2023/03/11 01:01:57;;;;;;;;;;;;;;;18.75;59.12;97326.81;2093431;28;19933;-65
2023/03/11 01:02:59;;;;;;;;;;;;;;;18.73;59.07;97326.19;2090498;28;20381;-66
2023/03/11 01:04:00;;;;;;;;;;;;;;;18.72;59.16;97320.00;2089220;28;19924;-65
2023/03/11 01:05:01;;;;;;;;;;;;;;;18.73;59.02;97324.31;2091389;28;21716;-65
2023/03/11 01:06:03;;;;;;;;;;;;;;;18.71;59.19;97314.84;2091003;28;20053;-65
2023/03/11 01:07:03;;;;;;;;;;;;;;;18.71;59.30;97307.59;2096357;28;21700;-66
2023/03/11 01:08:05;;;;;;;;;;;;;;;18.71;59.09;97304.13;2087719;28;20584;-65
2023/03/11 01:09:06;;;;;;;;;;;;;;;18.70;59.08;97306.00;2092476;28;19928;-65
2023/03/11 01:10:08;;;;;;;;;;;;;;;18.70;59.32;97307.88;2093021;28;20025;-66
2023/03/11 01:11:08;;;;;;;;;;;;;;;18.69;59.26;97301.69;2092045;28;19928;-65
2023/03/11 01:12:10;;;;;;;;;;;;;;;18.68;59.18;97305.41;2093717;28;20013;-65
2023/03/11 01:13:10;;;;;;;;;;;;;;;18.66;59.24;97295.94;2087779;28;19928;-64
2023/03/11 01:14:12;;;;;;;;;;;;;;;18.65;59.15;97300.50;2085994;28;19935;-65
2023/03/11 01:15:15;;;;;;;;;;;;;;;18.66;59.29;97306.69;2088474;28;19924;-65
2023/03/11 01:16:17;;;;;;;;;;;;;;;18.64;59.30;97295.38;2093254;28;19928;-65
2023/03/11 01:17:20;;;;;;;;;;;;;;;18.62;59.31;97289.44;2100172;28;20419;-65
2023/03/11 01:18:22;;;;;;;;;;;;;;;18.60;59.13;97288.84;2094126;28;19928;-65
2023/03/11 01:19:22;;;;;;;;;;;;;;;18.59;59.25;97281.84;2090577;28;20340;-65
2023/03/11 01:20:24;;;;;;;;;;;;;;;18.62;59.23;97289.44;2095835;28;19932;-66
2023/03/11 01:21:24;;;;;;;;;;;;;;;18.61;59.29;97283.25;2093458;28;20374;-65
2023/03/11 01:22:26;;;;;;;;;;;;;;;18.61;59.34;97287.78;2091554;28;19928;-65
2023/03/11 01:23:26;;;;;;;;;;;;;;;18.60;59.27;97283.47;2092799;28;19934;-66
2023/03/11 01:24:28;;;;;;;;;;;;;;;18.60;59.09;97295.03;2087359;28;19951;-65
2023/03/11 01:25:28;;;;;;;;;;;;;;;18.59;59.28;97287.22;2097220;28;19936;-65
2023/03/11 01:26:29;;;;;;;;;;;;;;;18.58;59.19;97289.06;2090629;28;19932;-66
2023/03/11 01:27:32;;;;;;;;;;;;;;;18.57;59.34;97283.94;2097202;28;21786;-66
2023/03/11 01:28:33;;;;;;;;;;;;;;;18.54;59.12;97277.97;2090632;28;19935;-66
2023/03/11 01:29:34;;;;;;;;;;;;;;;18.56;59.16;97276.94;2087953;28;19928;-66
2023/03/11 01:30:36;;;;;;;;;;;;;;;18.54;59.09;97286.03;2091233;28;20025;-66
2023/03/11 01:31:37;;;;;;;;;;;;;;;18.56;59.13;97274.25;2091555;28;19928;-66
2023/03/11 01:32:39;;;;;;;;;;;;;;;18.54;59.32;97269.13;2091881;28;20642;-65
2023/03/11 01:33:40;;;;;;;;;;;;;;;18.53;59.03;97270.19;2094705;28;19932;-65
2023/03/11 01:34:41;;;;;;;;;;;;;;;18.52;59.11;97288.13;2088683;28;19924;-66
2023/03/11 01:35:42;;;;;;;;;;;;;;;18.53;59.32;97286.28;2091007;28;19932;-66
2023/03/11 01:36:44;;;;;;;;;;;;;;;18.53;59.43;97286.28;2093240;28;20421;-65
2023/03/11 01:37:45;;;;;;;;;;;;;;;18.49;59.21;97283.25;2096862;28;19928;-66
2023/03/11 01:38:46;;;;;;;;;;;;;;;18.50;59.38;97284.09;2089399;28;20802;-66
2023/03/11 01:39:47;;;;;;;;;;;;;;;18.49;59.44;97288.59;2094769;28;19986;-66
2023/03/11 01:40:49;;;;;;;;;;;;;;;18.49;59.35;97282.44;2092530;28;20340;-65
2023/03/11 01:41:51;;;;;;;;;;;;;;;18.49;59.44;97279.75;2094092;28;19932;-65
2023/03/11 01:42:53;;;;;;;;;;;;;;;18.45;59.42;97276.72;2093405;28;20814;-65
2023/03/11 01:43:53;;;;;;;;;;;;;;;18.47;59.39;97271.09;2096700;28;20018;-65
2023/03/11 01:44:55;;;;;;;;;;;;;;;18.46;59.33;97267.59;2094759;28;19928;-66
2023/03/11 01:46:06;;;;;;;;;;;;;;;18.43;59.38;97268.06;2090466;28;20038;-65
2023/03/11 01:47:26;;;;;;;;;;;;;;;18.41;59.47;97270.16;2091360;28;20199;-65
2023/03/11 01:48:28;;;;;;;;;;;;;;;18.44;59.45;97279.63;2090045;28;19997;-65
2023/03/11 01:49:30;;;;;;;;;;;;;;;18.43;59.13;97276.13;2092051;28;20252;-65
2023/03/11 01:50:33;;;;;;;;;;;;;;;18.44;59.28;97282.31;2097531;28;20436;-66
2023/03/11 01:51:36;;;;;;;;;;;;;;;18.42;59.27;97279.88;2091747;28;19994;-65
2023/03/11 01:52:37;;;;;;;;;;;;;;;18.42;59.12;97273.69;2090059;28;19986;-66
2023/03/11 01:53:39;;;;;;;;;;;;;;;18.42;59.06;97273.69;2088685;28;20397;-65
2023/03/11 01:54:40;;;;;;;;;;;;;;;18.40;59.24;97273.91;2090319;28;19929;-65
2023/03/11 01:55:41;;;;;;;;;;;;;;;18.39;59.20;97280.34;2091037;28;20094;-65
2023/03/11 01:56:43;;;;;;;;;;;;;;;18.38;59.44;97281.38;2090830;28;20345;-64
2023/03/11 01:57:46;;;;;;;;;;;;;;;18.40;59.37;97275.78;2082454;28;20879;-66
2023/03/11 01:58:48;;;;;;;;;;;;;;;18.41;59.32;97272.03;2085034;28;19958;-65
2023/03/11 01:59:51;;;;;;;;;;;;;;;18.40;59.18;97273.91;2091859;28;19931;-65
2023/03/11 02:00:52;;;;;;;;;;;;;;;18.40;59.28;97271.25;2085407;28;20050;-65
2023/03/11 02:01:57;;;;;;;;;;;;;;;18.39;59.18;97268.81;2090128;28;19981;-65
2023/03/11 02:03:00;;;;;;;;;;;;;;;18.38;59.12;97262.59;2090503;28;19938;-65
2023/03/11 02:04:03;;;;;;;;;;;;;;;18.38;59.23;97265.28;2089181;28;19979;-67
2023/03/11 02:05:04;;;;;;;;;;;;;;;18.37;59.35;97265.53;2091524;28;19962;-65
2023/03/11 02:06:07;;;;;;;;;;;;;;;18.37;59.13;97252.91;2089829;28;19928;-66
2023/03/11 02:07:10;;;;;;;;;;;;;;;18.37;59.15;97255.59;2089492;28;20497;-65
2023/03/11 02:08:10;;;;;;;;;;;;;;;18.37;59.46;97260.16;2092358;28;20048;-65
2023/03/11 02:09:12;;;;;;;;;;;;;;;18.35;59.15;97262.25;2088812;28;20233;-65
2023/03/11 02:10:13;;;;;;;;;;;;;;;18.35;59.36;97257.69;2089421;28;19932;-65
2023/03/11 02:11:16;;;;;;;;;;;;;;;18.33;59.31;97262.50;2092477;28;19935;-66
2023/03/11 02:12:17;;;;;;;;;;;;;;;18.33;59.30;97254.47;2093559;28;19933;-66
2023/03/11 02:13:18;;;;;;;;;;;;;;;18.33;59.28;97238.34;2091348;28;20358;-66
2023/03/11 02:14:19;;;;;;;;;;;;;;;18.30;59.33;97217.31;2091695;28;20034;-66
2023/03/11 02:15:20;;;;;;;;;;;;;;;18.29;58.99;97208.47;2090697;28;19932;-65
2023/03/11 02:16:21;;;;;;;;;;;;;;;18.29;59.45;97199.59;2092723;28;19982;-66
2023/03/11 02:17:22;;;;;;;;;;;;;;;18.30;59.33;97185.13;2086052;28;19940;-66
2023/03/11 02:18:23;;;;;;;;;;;;;;;18.29;59.34;97178.94;2082215;28;20089;-65
2023/03/11 02:19:31;;;;;;;;;;;;;;;18.29;59.36;97172.75;2087169;28;19940;-66
2023/03/11 02:20:38;;;;;;;;;;;;;;;18.28;59.24;97181.88;2093736;28;20022;-66
2023/03/11 02:21:39;;;;;;;;;;;;;;;18.25;59.48;97176.97;2096761;28;19973;-65
2023/03/11 02:22:42;;;;;;;;;;;;;;;18.26;59.22;97183.97;2092831;28;21190;-65
2023/03/11 02:23:47;;;;;;;;;;;;;;;18.25;59.53;97182.34;2087734;28;21036;-65
2023/03/11 02:24:53;;;;;;;;;;;;;;;18.23;59.42;97185.25;2090823;28;19932;-65
2023/03/11 02:25:59;;;;;;;;;;;;;;;18.25;59.27;97183.16;2093281;28;20537;-66
2023/03/11 02:27:05;;;;;;;;;;;;;;;18.23;59.46;97189.81;2096551;28;20304;-65
2023/03/11 02:28:07;;;;;;;;;;;;;;;18.23;59.30;97177.19;2094666;28;19924;-65
2023/03/11 02:29:10;;;;;;;;;;;;;;;18.23;59.21;97181.75;2092982;28;20431;-65
2023/03/11 02:30:12;;;;;;;;;;;;;;;18.21;59.56;97190.03;2096364;28;20151;-65
2023/03/11 02:31:14;;;;;;;;;;;;;;;18.22;59.36;97197.06;2093886;28;20386;-66
2023/03/11 02:32:14;;;;;;;;;;;;;;;18.25;59.26;97203.81;2089594;28;19978;-65
2023/03/11 02:33:16;;;;;;;;;;;;;;;18.21;59.48;97199.97;2094830;28;19975;-65
2023/03/11 02:34:20;;;;;;;;;;;;;;;18.23;59.22;97200.53;2087940;28;19932;-66
2023/03/11 02:35:21;;;;;;;;;;;;;;;18.20;59.45;97195.66;2087939;28;21106;-65
2023/03/11 02:36:34;;;;;;;;;;;;;;;18.19;59.11;97194.00;2094687;28;19928;-66
2023/03/11 02:37:35;;;;;;;;;;;;;;;18.19;59.51;97210.09;2088302;28;19998;-65
2023/03/11 02:38:37;;;;;;;;;;;;;;;18.21;59.24;97191.91;2087259;28;19932;-66
2023/03/11 02:39:39;;;;;;;;;;;;;;;18.20;59.22;97187.59;2086975;28;19928;-65
2023/03/11 02:40:44;;;;;;;;;;;;;;;18.19;59.24;97183.28;2089838;28;20313;-65
2023/03/11 02:41:46;;;;;;;;;;;;;;;18.18;59.50;97184.34;2090775;28;20067;-65
2023/03/11 02:42:48;;;;;;;;;;;;;;;18.16;59.52;97181.88;2091779;28;19928;-66
2023/03/11 02:43:50;;;;;;;;;;;;;;;18.17;59.21;97175.47;2094772;28;20045;-66
2023/03/11 02:44:54;;;;;;;;;;;;;;;18.16;59.27;97178.38;2090295;28;20550;-66
2023/03/11 02:45:56;;;;;;;;;;;;;;;18.17;59.17;97174.66;2093285;28;19958;-66
2023/03/11 02:46:56;;;;;;;;;;;;;;;18.14;59.38;97165.22;2092648;28;19932;-66
2023/03/11 02:47:59;;;;;;;;;;;;;;;18.16;59.46;97170.31;2090755;28;20046;-66
2023/03/11 02:49:01;;;;;;;;;;;;;;;18.13;59.49;97174.28;2091458;28;19943;-66
2023/03/11 02:50:02;;;;;;;;;;;;;;;18.12;59.61;97177.22;2092217;28;19998;-66
2023/03/11 02:51:04;;;;;;;;;;;;;;;18.15;59.41;97179.44;2088434;28;20151;-64
2023/03/11 02:52:05;;;;;;;;;;;;;;;18.14;59.49;97177.81;2092418;28;19943;-65
2023/03/11 02:53:07;;;;;;;;;;;;;;;18.11;59.48;97164.84;2088620;28;21026;-65
2023/03/11 02:54:07;;;;;;;;;;;;;;;18.11;59.63;97170.22;2090745;28;20316;-65
2023/03/11 02:55:10;;;;;;;;;;;;;;;18.12;59.38;97166.50;2087982;28;20036;-65
2023/03/11 02:56:11;;;;;;;;;;;;;;;18.09;59.49;97163.22;2091194;28;19924;-65
2023/03/11 02:57:12;;;;;;;;;;;;;;;18.12;59.41;97167.31;2088488;28;19928;-66
2023/03/11 02:58:14;;;;;;;;;;;;;;;18.08;59.31;97164.28;2090631;28;19974;-64
2023/03/11 02:59:16;;;;;;;;;;;;;;;18.09;59.45;97160.53;2089619;28;19994;-65
2023/03/11 03:00:16;;;;;;;;;;;;;;;18.08;59.29;97158.13;2086651;28;21277;-66
2023/03/11 03:01:18;;;;;;;;;;;;;;;18.09;59.33;97159.72;2090709;28;19959;-65
2023/03/11 03:02:18;;;;;;;;;;;;;;;18.09;59.50;97157.06;2090493;28;19928;-65
2023/03/11 03:03:20;;;;;;;;;;;;;;;18.06;59.56;97160.22;2085542;28;19955;-65
2023/03/11 03:04:20;;;;;;;;;;;;;;;18.06;59.39;97152.97;2091616;28;19982;-66
2023/03/11 03:05:22;;;;;;;;;;;;;;;18.08;59.40;97150.06;2089978;28;19927;-66
2023/03/11 03:06:23;;;;;;;;;;;;;;;18.08;59.40;97160.78;2088550;28;19932;-64
2023/03/11 03:07:25;;;;;;;;;;;;;;;18.06;59.33;97168.25;2088123;28;20102;-66
2023/03/11 03:08:25;;;;;;;;;;;;;;;18.06;59.55;97174.44;2091541;28;20560;-65
2023/03/11 03:09:27;;;;;;;;;;;;;;;18.07;59.29;97178.72;2086354;28;19971;-65
2023/03/11 03:10:27;;;;;;;;;;;;;;;18.07;59.44;97181.41;2090914;28;20547;-65
2023/03/11 03:11:29;;;;;;;;;;;;;;;18.07;59.21;97178.72;2088143;28;19932;-66
2023/03/11 03:12:29;;;;;;;;;;;;;;;18.07;59.48;97180.59;2090012;28;19943;-65
2023/03/11 03:13:32;;;;;;;;;;;;;;;18.08;59.39;97180.38;2088827;28;20622;-66
2023/03/11 03:14:32;;;;;;;;;;;;;;;18.05;59.44;97172.81;2088306;28;19928;-65
2023/03/11 03:15:34;;;;;;;;;;;;;;;18.05;59.39;97178.19;2091835;28;20389;-66
2023/03/11 03:16:34;;;;;;;;;;;;;;;18.07;59.43;97176.06;2085887;28;20001;-65
2023/03/11 03:17:36;;;;;;;;;;;;;;;18.04;59.48;97168.47;2088908;28;20026;-66
2023/03/11 03:18:36;;;;;;;;;;;;;;;18.04;59.48;97179.22;2094848;28;19973;-66
2023/03/11 03:19:38;;;;;;;;;;;;;;;18.02;59.41;97172.44;2090120;28;20711;-66
2023/03/11 03:20:38;;;;;;;;;;;;;;;18.03;59.26;97166.84;2093568;28;19963;-65
2023/03/11 03:21:40;;;;;;;;;;;;;;;18.01;59.36;97150.16;2097020;28;20512;-66
2023/03/11 03:22:40;;;;;;;;;;;;;;;18.02;59.13;97143.75;2094331;28;19934;-66
2023/03/11 03:23:42;;;;;;;;;;;;;;;17.99;59.54;97140.72;2088187;28;19982;-65
2023/03/11 03:24:42;;;;;;;;;;;;;;;17.99;59.50;97138.03;2092910;28;19974;-64
2023/03/11 03:25:44;;;;;;;;;;;;;;;18.00;59.65;97140.50;2091803;28;21458;-66
2023/03/11 03:26:44;;;;;;;;;;;;;;;18.00;59.43;97142.38;2087310;28;19928;-65
2023/03/11 03:27:46;;;;;;;;;;;;;;;17.97;59.30;97149.03;2091438;28;19975;-65
2023/03/11 03:28:48;;;;;;;;;;;;;;;17.97;59.48;97143.66;2091219;28;20767;-64
2023/03/11 03:29:49;;;;;;;;;;;;;;;17.99;59.27;97151.47;2086365;28;19982;-66
2023/03/11 03:30:50;;;;;;;;;;;;;;;17.98;59.57;97156.00;2092724;28;19928;-65
2023/03/11 03:31:51;;;;;;;;;;;;;;;17.97;59.59;97161.59;2090487;28;20568;-66
2023/03/11 03:32:52;;;;;;;;;;;;;;;17.96;59.31;97158.09;2091995;28;19928;-66
2023/03/11 03:33:53;;;;;;;;;;;;;;;17.97;59.34;97165.13;2092745;28;19924;-65
2023/03/11 03:34:57;;;;;;;;;;;;;;;17.96;59.63;97170.72;2093784;28;19975;-66
2023/03/11 03:35:59;;;;;;;;;;;;;;;17.96;59.47;97166.16;2092330;28;19950;-65
2023/03/11 03:36:59;;;;;;;;;;;;;;;17.97;59.51;97166.97;2089792;28;19978;-65
2023/03/11 03:38:01;;;;;;;;;;;;;;;17.96;59.29;97171.53;2088742;28;19940;-66
2023/03/11 03:39:02;;;;;;;;;;;;;;;17.97;59.59;97175.84;2089852;28;19925;-66
2023/03/11 03:40:06;;;;;;;;;;;;;;;17.97;59.39;97173.16;2083318;28;19932;-65
2023/03/11 03:41:07;;;;;;;;;;;;;;;17.95;59.19;97177.94;2087415;28;19939;-67
2023/03/11 03:42:08;;;;;;;;;;;;;;;17.94;59.36;97175.47;2092945;28;20419;-66
2023/03/11 03:43:10;;;;;;;;;;;;;;;17.92;59.35;97178.41;2088765;28;19925;-66
2023/03/11 03:44:11;;;;;;;;;;;;;;;17.93;59.33;97180.03;2086049;28;19932;-66
2023/03/11 03:45:13;;;;;;;;;;;;;;;17.94;59.35;97176.31;2084454;28;19959;-65
2023/03/11 03:46:13;;;;;;;;;;;;;;;17.93;59.19;97172.00;2094696;28;19936;-65
2023/03/11 03:47:15;;;;;;;;;;;;;;;17.92;59.62;97170.38;2092564;28;20393;-65
2023/03/11 03:48:15;;;;;;;;;;;;;;;17.93;59.47;97174.66;2094838;28;19955;-65
2023/03/11 03:49:17;;;;;;;;;;;;;;;17.91;59.50;97166.03;2081775;28;19959;-65
2023/03/11 03:50:17;;;;;;;;;;;;;;;17.90;59.54;97158.25;2091235;28;19982;-65
2023/03/11 03:51:18;;;;;;;;;;;;;;;17.91;59.57;97160.66;2089366;28;22059;-66
2023/03/11 03:52:19;;;;;;;;;;;;;;;17.92;59.42;97169.56;2089826;28;20496;-66
2023/03/11 03:53:21;;;;;;;;;;;;;;;17.92;59.50;97156.97;2093306;28;19987;-65
2023/03/11 03:54:21;;;;;;;;;;;;;;;17.91;59.40;97173.28;2091762;28;20080;-65
2023/03/11 03:55:23;;;;;;;;;;;;;;;17.90;59.54;97169.78;2090184;28;19986;-66
2023/03/11 03:56:23;;;;;;;;;;;;;;;17.91;59.33;97175.94;2086272;28;19927;-66
2023/03/11 03:57:25;;;;;;;;;;;;;;;17.92;59.31;97172.25;2092916;28;24431;-66
2023/03/11 03:58:25;;;;;;;;;;;;;;;17.92;59.20;97175.72;2088981;28;20415;-65
2023/03/11 03:59:28;;;;;;;;;;;;;;;17.89;59.31;97178.88;2090654;28;20193;-66
2023/03/11 04:00:29;;;;;;;;;;;;;;;17.89;59.45;97186.94;2089241;28;19975;-66
2023/03/11 04:01:30;;;;;;;;;;;;;;;17.88;59.33;97185.28;2084785;28;19932;-65
2023/03/11 04:02:30;;;;;;;;;;;;;;;17.87;59.52;97186.34;2085598;28;19960;-65
2023/03/11 04:03:33;;;;;;;;;;;;;;;17.87;59.47;97194.38;2087439;28;20025;-66
2023/03/11 04:04:34;;;;;;;;;;;;;;;17.86;59.53;97188.22;2089366;28;20401;-65
2023/03/11 04:05:35;;;;;;;;;;;;;;;17.88;59.32;97184.47;2084281;28;20067;-66
2023/03/11 04:06:36;;;;;;;;;;;;;;;17.88;59.27;97185.28;2088789;28;19924;-66
2023/03/11 04:07:37;;;;;;;;;;;;;;;17.88;59.28;97187.16;2091005;28;20128;-65
2023/03/11 04:08:39;;;;;;;;;;;;;;;17.89;59.37;97191.50;2088692;28;20005;-65
2023/03/11 04:09:41;;;;;;;;;;;;;;;17.86;59.38;97188.22;2085721;28;19930;-66
2023/03/11 04:10:41;;;;;;;;;;;;;;;17.84;59.58;97184.94;2091996;28;20695;-66
2023/03/11 04:11:43;;;;;;;;;;;;;;;17.84;59.37;97187.63;2094036;28;20467;-66
2023/03/11 04:12:43;;;;;;;;;;;;;;;17.84;59.51;97187.63;2089218;28;20420;-65
2023/03/11 04:13:44;;;;;;;;;;;;;;;17.85;59.40;97193.81;2085083;28;21170;-66
2023/03/11 04:14:47;;;;;;;;;;;;;;;17.84;59.27;97200.22;2093543;28;20700;-66
2023/03/11 04:15:49;;;;;;;;;;;;;;;17.83;59.13;97201.28;2088111;28;19982;-66
2023/03/11 04:16:49;;;;;;;;;;;;;;;17.83;59.27;97196.72;2092233;28;19954;-66
2023/03/11 04:17:50;;;;;;;;;;;;;;;17.84;59.33;97193.00;2092154;28;19924;-66
2023/03/11 04:18:51;;;;;;;;;;;;;;;17.81;59.29;97184.59;2089302;28;19932;-64
2023/03/11 04:19:52;;;;;;;;;;;;;;;17.82;59.41;97194.28;2092524;28;20478;-65
2023/03/11 04:20:53;;;;;;;;;;;;;;;17.80;59.32;97186.47;2094399;28;20158;-66
2023/03/11 04:21:54;;;;;;;;;;;;;;;17.79;59.31;97190.19;2088890;28;19978;-65
2023/03/11 04:22:55;;;;;;;;;;;;;;;17.82;59.46;97191.59;2093577;28;19955;-66
2023/03/11 04:23:56;;;;;;;;;;;;;;;17.81;59.46;97188.09;2096317;28;20113;-65
2023/03/11 04:24:57;;;;;;;;;;;;;;;17.81;59.56;97198.81;2094709;28;19936;-65
2023/03/11 04:25:58;;;;;;;;;;;;;;;17.81;59.55;97195.31;2090634;28;19936;-65
2023/03/11 04:27:00;;;;;;;;;;;;;;;17.82;59.52;97199.63;2089622;28;19939;-66
2023/03/11 04:28:00;;;;;;;;;;;;;;;17.78;59.54;97196.63;2087985;28;19931;-64
2023/03/11 04:29:02;;;;;;;;;;;;;;;17.80;59.25;97193.69;2087929;28;20055;-66
2023/03/11 04:30:04;;;;;;;;;;;;;;;17.79;59.17;97189.38;2091776;28;19932;-65
2023/03/11 04:31:06;;;;;;;;;;;;;;;17.79;59.54;97186.69;2086290;28;20225;-66
2023/03/11 04:32:06;;;;;;;;;;;;;;;17.78;59.57;97199.28;2089717;28;20015;-65
2023/03/11 04:33:08;;;;;;;;;;;;;;;17.78;59.50;97196.63;2088689;28;19939;-66
2023/03/11 04:34:08;;;;;;;;;;;;;;;17.79;59.38;97194.75;2089567;28;20014;-65
2023/03/11 04:35:10;;;;;;;;;;;;;;;17.80;59.49;97191.00;2094257;28;19928;-65
2023/03/11 04:36:11;;;;;;;;;;;;;;;17.77;59.48;97192.25;2089505;28;20018;-65
2023/03/11 04:37:12;;;;;;;;;;;;;;;17.76;59.42;97198.66;2090921;28;20093;-65
2023/03/11 04:38:12;;;;;;;;;;;;;;;17.76;59.55;97193.31;2093279;28;20002;-66
2023/03/11 04:39:14;;;;;;;;;;;;;;;17.77;59.48;97191.44;2086478;28;20955;-64
2023/03/11 04:40:15;;;;;;;;;;;;;;;17.77;59.23;97194.94;2088168;28;20481;-64
2023/03/11 04:41:17;;;;;;;;;;;;;;;17.76;59.44;97201.34;2090504;28;19960;-66
2023/03/11 04:42:18;;;;;;;;;;;;;;;17.76;59.24;97198.66;2091497;28;20006;-65
2023/03/11 04:43:19;;;;;;;;;;;;;;;17.76;59.51;97205.91;2088028;28;20022;-65
2023/03/11 04:44:19;;;;;;;;;;;;;;;17.73;59.31;97193.78;2087459;28;19929;-66
2023/03/11 04:45:22;;;;;;;;;;;;;;;17.74;59.43;97195.41;2092117;28;19928;-66
2023/03/11 04:46:24;;;;;;;;;;;;;;;17.75;59.54;97201.59;2093700;28;19969;-64
2023/03/11 04:47:24;;;;;;;;;;;;;;;17.73;59.32;97191.09;2095221;28;19928;-64
2023/03/11 04:48:26;;;;;;;;;;;;;;;17.74;59.40;97191.91;2097119;28;19928;-66
2023/03/11 04:49:27;;;;;;;;;;;;;;;17.74;59.40;97186.53;2087251;28;20124;-65
2023/03/11 04:50:28;;;;;;;;;;;;;;;17.72;59.36;97181.44;2088605;28;19935;-65
2023/03/11 04:51:29;;;;;;;;;;;;;;;17.73;59.41;97174.19;2088236;28;20352;-66
2023/03/11 04:52:30;;;;;;;;;;;;;;;17.73;59.47;97179.56;2094897;28;19975;-66
2023/03/11 04:53:30;;;;;;;;;;;;;;;17.71;59.52;97171.72;2087624;28;19959;-66
2023/03/11 04:54:32;;;;;;;;;;;;;;;17.71;59.30;97169.03;2087488;28;20486;-66
2023/03/11 04:55:32;;;;;;;;;;;;;;;17.72;59.40;97178.75;2087029;28;19932;-66
2023/03/11 04:56:34;;;;;;;;;;;;;;;17.71;59.39;97181.66;2090223;28;20002;-65
2023/03/11 04:57:34;;;;;;;;;;;;;;;17.70;59.38;97183.50;2090182;28;19978;-66
2023/03/11 04:58:36;;;;;;;;;;;;;;;17.71;59.28;97185.13;2088999;28;20392;-66
2023/03/11 04:59:36;;;;;;;;;;;;;;;17.71;59.40;97190.50;2094853;28;19975;-65
2023/03/11 05:00:40;;;;;;;;;;;;;;;17.69;59.61;97197.16;2089902;28;20352;-66
2023/03/11 05:01:40;;;;;;;;;;;;;;;17.69;59.28;97189.94;2089123;28;20240;-65
2023/03/11 05:02:42;;;;;;;;;;;;;;;17.68;59.33;97193.66;2085894;28;20176;-65
2023/03/11 05:03:42;;;;;;;;;;;;;;;17.70;59.61;97190.75;2087916;28;20423;-65
2023/03/11 05:04:44;;;;;;;;;;;;;;;17.67;59.54;97192.03;2088293;28;20591;-65
2023/03/11 05:05:44;;;;;;;;;;;;;;;17.68;59.41;97198.19;2088098;28;19939;-66
2023/03/11 05:06:46;;;;;;;;;;;;;;;17.69;59.57;97199.81;2087748;28;19939;-66
2023/03/11 05:07:46;;;;;;;;;;;;;;;17.69;59.53;97199.81;2086967;28;19925;-65
2023/03/11 05:08:48;;;;;;;;;;;;;;;17.69;59.53;97199.81;2090999;28;19936;-66
2023/03/11 05:09:48;;;;;;;;;;;;;;;17.69;59.52;97202.50;2089611;28;20360;-64
2023/03/11 05:10:51;;;;;;;;;;;;;;;17.68;59.49;97208.94;2097587;22;19955;-55
2023/03/11 05:11:51;;;;;;;;;;;;;;;17.67;59.44;97220.72;2078583;28;20884;-55
2023/03/11 05:12:53;;;;;;;;;;;;;;;17.65;59.38;97223.63;2078286;28;20032;-55
2023/03/11 05:13:54;;;;;;;;;;;;;;;17.64;59.53;97240.75;2074798;28;20024;-52
2023/03/11 05:14:55;;;;;;;;;;;;;;;17.65;59.65;97227.09;2082009;28;20003;-59
2023/03/11 05:15:58;;;;;;;;;;;;;;;17.64;59.55;97232.72;2072714;28;20161;-54
2023/03/11 05:16:58;;;;;;;;;;;;;;;17.63;59.41;97231.06;2075459;28;19940;-62
2023/03/11 05:18:00;;;;;;;;;;;;;;;17.63;59.32;97239.09;2076100;28;19937;-57
2023/03/11 05:19:00;;;;;;;;;;;;;;;17.63;59.53;97242.63;2074323;28;19932;-54
2023/03/11 05:20:05;;;;;;;;;;;;;;;17.62;59.40;97232.94;2075656;28;20800;-52
2023/03/11 05:21:05;;;;;;;;;;;;;;;17.63;59.40;97239.94;2070404;28;19942;-61